Swell Rider — WDC7970 — position and weather

sailwx.info

Track history (hours):
 
Tides and Currents Weather Stations Pressure Air Temp Water Temp Dewpoint Dewpoint Depression Visibility Wind Speed Wind Dir Waves Ship Positions

Swell Rider

Owner: PACIFIC HARVESTING CORPORATION, GARIBALDI, OR. More information available from US FCC via Universal Licensing System and Coast Guard Vessel Documentation Center.

Last reported at 2018-Feb-20 17:25 UTC. Time now 2018-Feb-20 23:10 UTC.
Position N 45°34' W 123°57'.

Length 28 m.

Type: Fishing. MMSI: 367079690.

Date/timePositionNaut miles runAvg speedWind from/ knotsBaromVisibWave heightAir tempDewpointWater temp
2018-Feb-20 17:25N 45°34' W 123°57'3 6.7
2018-Feb-20 16:59N 45°32' W 123°60'12 1.0
2018-Feb-20 05:36N 45°26' W 124°14'1 9.2
2018-Feb-20 05:30N 45°26' W 124°14'5 9.1
2018-Feb-20 05:00N 45°31' W 124°13'5 9.2
2018-Feb-20 04:30N 45°35' W 124°13'5 9.1
2018-Feb-20 04:00N 45°40' W 124°14'5 9.1
2018-Feb-20 03:30N 45°45' W 124°15'5 9.2
2018-Feb-20 03:00N 45°49' W 124°16'5 9.2
2018-Feb-20 02:30N 45°54' W 124°17'5 9.2
2018-Feb-20 01:58N 45°58' W 124°18'4 9.0
2018-Feb-20 01:30N 46°03' W 124°19'4 8.0
2018-Feb-20 01:00N 46°07' W 124°18'4 8.6
2018-Feb-20 00:30N 46°10' W 124°14'4 8.9
2018-Feb-20 00:00N 46°12' W 124°09'4 8.7
2018-Feb-19 23:30N 46°15' W 124°04'4 7.4
2018-Feb-19 23:00N 46°14' W 123°59'4 8.1
2018-Feb-19 22:30N 46°11' W 123°54'1 2.3
2018-Feb-19 21:59N 46°10' W 123°55'0 0.2
2018-Feb-19 21:25N 46°10' W 123°55'0 0.0
2018-Feb-19 20:58N 46°10' W 123°55'0 0.0
2018-Feb-19 20:28N 46°10' W 123°55'0 0.0
2018-Feb-19 19:55N 46°10' W 123°55'0 0.0
2018-Feb-19 18:55N 46°10' W 123°55'0 0.0
2018-Feb-19 18:07N 46°10' W 123°55'0 0.0
2018-Feb-19 17:58N 46°10' W 123°55'0 0.0
2018-Feb-19 17:28N 46°10' W 123°55'0 0.0
2018-Feb-19 16:58N 46°10' W 123°55'0 0.0
2018-Feb-19 16:28N 46°10' W 123°55'0 0.0
2018-Feb-19 15:58N 46°10' W 123°55'0 0.0
2018-Feb-19 15:28N 46°10' W 123°55'0 0.0
2018-Feb-19 14:58N 46°10' W 123°55'0 0.0
2018-Feb-19 14:28N 46°10' W 123°55'0 0.0
2018-Feb-19 13:58N 46°10' W 123°55'0 0.0
2018-Feb-19 13:28N 46°10' W 123°55'0 0.0
2018-Feb-19 12:58N 46°10' W 123°55'0 0.0
2018-Feb-19 12:28N 46°10' W 123°55'0 0.0
2018-Feb-19 11:58N 46°10' W 123°55'0 0.0
2018-Feb-19 10:46N 46°10' W 123°55'0 0.0
2018-Feb-19 10:28N 46°10' W 123°55'0 0.0
2018-Feb-19 09:58N 46°10' W 123°55'0 0.0
2018-Feb-19 09:08N 46°10' W 123°55'0 0.0
2018-Feb-19 08:58N 46°10' W 123°55'0 0.0
2018-Feb-19 08:28N 46°10' W 123°55'0 0.0
2018-Feb-19 07:40N 46°10' W 123°55'0 0.0
2018-Feb-19 07:29N 46°10' W 123°55'0 0.0
2018-Feb-19 06:55N 46°10' W 123°55'0 0.0
2018-Feb-19 06:28N 46°10' W 123°55'0 0.0
2018-Feb-19 05:58N 46°10' W 123°55'0 0.0
2018-Feb-19 05:16N 46°10' W 123°55'0 0.0
2018-Feb-19 04:59N 46°10' W 123°55'0 0.0
2018-Feb-19 04:28N 46°10' W 123°55'0 0.0
2018-Feb-19 03:58N 46°10' W 123°55'0 0.0
2018-Feb-19 03:28N 46°10' W 123°55'0 0.0
2018-Feb-19 02:59N 46°10' W 123°55'0 0.0
2018-Feb-19 02:29N 46°10' W 123°55'0 0.0
2018-Feb-19 01:59N 46°10' W 123°55'0 0.0
2018-Feb-19 01:29N 46°10' W 123°55'0 0.0
2018-Feb-19 00:58N 46°10' W 123°55'0 0.0
2018-Feb-19 00:29N 46°10' W 123°55'0 0.0
2018-Feb-18 23:59N 46°10' W 123°55'0 0.0
2018-Feb-18 23:29N 46°10' W 123°55'0 0.0
2018-Feb-18 22:59N 46°10' W 123°55'0 0.0
2018-Feb-18 22:29N 46°10' W 123°55'0 0.0
2018-Feb-18 21:59N 46°10' W 123°55'0 0.0
2018-Feb-18 21:29N 46°10' W 123°55'0 0.0
2018-Feb-18 20:59N 46°10' W 123°55'0 0.0
2018-Feb-18 20:29N 46°10' W 123°55'0 0.0
2018-Feb-18 19:59N 46°10' W 123°55'0 0.0
2018-Feb-18 19:29N 46°10' W 123°55'0 0.0
2018-Feb-18 18:59N 46°10' W 123°55'0 0.0
2018-Feb-18 18:29N 46°10' W 123°55'0 0.0
2018-Feb-18 17:59N 46°10' W 123°55'0 0.0
2018-Feb-18 17:29N 46°10' W 123°55'0 0.0
2018-Feb-18 16:59N 46°10' W 123°55'0 0.0
2018-Feb-18 16:29N 46°10' W 123°55'0 0.0
2018-Feb-18 15:59N 46°10' W 123°55'0 0.0
2018-Feb-18 15:29N 46°10' W 123°55'0 0.0
2018-Feb-18 14:59N 46°10' W 123°55'0 0.0
2018-Feb-18 14:29N 46°10' W 123°55'0 0.0
2018-Feb-18 13:59N 46°10' W 123°55'0 0.0
2018-Feb-18 13:29N 46°10' W 123°55'0 0.0
2018-Feb-18 12:59N 46°10' W 123°55'0 0.0
2018-Feb-18 12:29N 46°10' W 123°55'0 0.0
2018-Feb-18 11:59N 46°10' W 123°55'0 0.0
2018-Feb-18 11:29N 46°10' W 123°55'0 0.0
2018-Feb-18 10:59N 46°10' W 123°55'0 0.0
2018-Feb-18 10:29N 46°10' W 123°55'0 0.0
2018-Feb-18 09:47N 46°10' W 123°55'0 0.0
2018-Feb-18 09:29N 46°10' W 123°55'0 0.0
2018-Feb-18 08:59N 46°10' W 123°55'0 0.0
2018-Feb-18 08:29N 46°10' W 123°55'0 0.0
2018-Feb-18 07:59N 46°10' W 123°55'0 0.0
2018-Feb-18 07:29N 46°10' W 123°55'0 0.0
2018-Feb-18 06:59N 46°10' W 123°55'0 0.0
2018-Feb-18 06:29N 46°10' W 123°55'0 0.0
2018-Feb-18 05:59N 46°10' W 123°55'0 0.0
2018-Feb-18 05:29N 46°10' W 123°55'0 0.0
2018-Feb-18 04:59N 46°10' W 123°55'0 0.0
2018-Feb-18 04:29N 46°10' W 123°55'0 0.0
2018-Feb-18 03:59N 46°10' W 123°55'0 0.0
2018-Feb-18 03:29N 46°10' W 123°55'0 0.0
2018-Feb-18 02:59N 46°10' W 123°55'0 0.0
2018-Feb-18 02:29N 46°10' W 123°55'0 0.0
2018-Feb-18 01:59N 46°10' W 123°55'0 0.0
2018-Feb-18 01:29N 46°10' W 123°55'0 0.0
2018-Feb-18 00:59N 46°10' W 123°55'0 0.0
2018-Feb-18 00:11N 46°10' W 123°55'0 0.0
2018-Feb-17 23:47N 46°10' W 123°55'0 0.0
2018-Feb-17 23:30N 46°10' W 123°55'0 0.0
2018-Feb-17 22:59N 46°10' W 123°55'0 0.0
2018-Feb-17 22:29N 46°10' W 123°55'0 0.0
2018-Feb-17 21:59N 46°10' W 123°55'0 0.0
2018-Feb-17 21:29N 46°10' W 123°55'0 0.0
2018-Feb-17 20:59N 46°10' W 123°55'0 0.0
2018-Feb-17 20:29N 46°10' W 123°55'0 0.0
2018-Feb-17 19:59N 46°10' W 123°55'0 0.0
2018-Feb-17 19:29N 46°10' W 123°55'0 0.0
2018-Feb-17 18:35N 46°10' W 123°55'0 0.0
2018-Feb-17 18:29N 46°10' W 123°55'0 0.0
2018-Feb-17 17:35N 46°10' W 123°55'0 0.0
2018-Feb-17 17:29N 46°10' W 123°55'0 0.0
2018-Feb-17 16:59N 46°10' W 123°55'0 0.0
2018-Feb-17 16:29N 46°10' W 123°55'0 0.1
2018-Feb-17 15:58N 46°10' W 123°55'0 0.1
2018-Feb-17 15:30N 46°10' W 123°55'0 0.0
2018-Feb-17 15:00N 46°10' W 123°55'0 0.0
2018-Feb-17 14:30N 46°10' W 123°55'0 0.0
2018-Feb-17 14:00N 46°10' W 123°55'0 0.2
2018-Feb-17 13:30N 46°10' W 123°55'0 0.0
2018-Feb-17 10:15N 46°10' W 123°55'0 0.0
2018-Feb-17 10:00N 46°10' W 123°55'0 0.0
2018-Feb-17 09:30N 46°10' W 123°55'0 0.0
2018-Feb-17 09:00N 46°10' W 123°55'0 0.0
2018-Feb-17 08:30N 46°10' W 123°55'0 0.0
2018-Feb-17 08:00N 46°10' W 123°55'0 0.0
2018-Feb-17 07:30N 46°10' W 123°55'0 0.0
2018-Feb-17 07:00N 46°10' W 123°55'0 0.0
2018-Feb-17 06:30N 46°10' W 123°55'0 0.0
2018-Feb-17 06:00N 46°10' W 123°55'0 0.0
2018-Feb-17 05:30N 46°10' W 123°55'0 0.0
2018-Feb-17 05:00N 46°10' W 123°55'0 0.3
2018-Feb-17 04:30N 46°10' W 123°55'5 5.9
2018-Feb-17 03:34N 46°14' W 123°60'2 5.1
2018-Feb-17 03:14N 46°15' W 124°02'1 4.4
2018-Feb-17 03:00N 46°15' W 124°04'2 4.2
2018-Feb-17 02:30N 46°14' W 124°06'4 8.5
2018-Feb-17 02:00N 46°10' W 124°06'3 6.9
2018-Feb-17 01:30N 46°06' W 124°05'4 7.3
2018-Feb-17 01:00N 46°03' W 124°05'3 6.9
2018-Feb-17 00:30N 45°59' W 124°04'3 6.1
2018-Feb-17 00:00N 45°56' W 124°03'4 7.6
2018-Feb-16 23:29N 45°52' W 124°02'4 7.8
2018-Feb-16 23:00N 45°49' W 124°02'4 7.4
2018-Feb-16 22:28N 45°45' W 124°00'2 4.1
2018-Feb-16 22:00N 45°43' W 123°59'0 0.9
2018-Feb-16 21:30N 45°43' W 123°59'0 0.6
2018-Feb-16 20:43N 45°42' W 123°59'1 4.2
2018-Feb-16 20:25N 45°41' W 123°59'3 6.9
2018-Feb-16 19:58N 45°38' W 123°60'1 2.3
2018-Feb-16 19:22N 45°37' W 123°60'  
2018-Feb-12 21:54N 45°53' W 124°16'3 8.3
2018-Feb-12 21:31N 45°56' W 124°16'4 8.3
2018-Feb-12 21:01N 45°60' W 124°14'6 8.1
2018-Feb-12 20:19N 46°05' W 124°11'3 8.1
2018-Feb-12 20:00N 46°07' W 124°10'4 8.1
2018-Feb-12 19:30N 46°11' W 124°07'4 9.0
2018-Feb-12 19:00N 46°15' W 124°05'4 8.3
2018-Feb-12 18:30N 46°14' W 123°59'4 8.4
2018-Feb-12 17:59N 46°12' W 123°54'2 4.7
2018-Feb-12 17:29N 46°12' W 123°50'0 0.0
2018-Feb-12 16:59N 46°12' W 123°50'0 0.0
2018-Feb-12 16:20N 46°12' W 123°50'0 0.0
2018-Feb-12 15:59N 46°12' W 123°50'2 4.9
2018-Feb-12 15:30N 46°11' W 123°54'1 2.7
2018-Feb-12 15:00N 46°10' W 123°55'0 0.0
2018-Feb-12 14:30N 46°10' W 123°55'0 0.2
2018-Feb-12 13:56N 46°10' W 123°55'0 0.1
2018-Feb-12 13:29N 46°10' W 123°55'0 0.0
2018-Feb-12 12:56N 46°10' W 123°55'0 0.0
2018-Feb-12 12:29N 46°10' W 123°55'0 0.0
2018-Feb-12 11:59N 46°10' W 123°55'0 0.0
2018-Feb-12 11:29N 46°10' W 123°55'0 0.0
2018-Feb-12 10:59N 46°10' W 123°55'0 0.0
2018-Feb-12 10:29N 46°10' W 123°55'0 0.0
2018-Feb-12 09:59N 46°10' W 123°55'0 0.0
2018-Feb-12 09:29N 46°10' W 123°55'0 0.0
2018-Feb-12 08:59N 46°10' W 123°55'0 0.0
2018-Feb-12 08:29N 46°10' W 123°55'0 0.0
2018-Feb-12 07:59N 46°10' W 123°55'0 0.0
2018-Feb-12 07:29N 46°10' W 123°55'0 0.0
2018-Feb-12 06:59N 46°10' W 123°55'0 0.0
2018-Feb-12 06:29N 46°10' W 123°55'0 0.0
2018-Feb-12 05:47N 46°10' W 123°55'0 0.0
2018-Feb-12 05:29N 46°10' W 123°55'0 0.0
2018-Feb-12 04:59N 46°10' W 123°55'0 0.0
2018-Feb-12 04:29N 46°10' W 123°55'0 0.0
2018-Feb-12 03:59N 46°10' W 123°55'0 0.0
2018-Feb-12 03:29N 46°10' W 123°55'0 0.0
2018-Feb-12 02:59N 46°10' W 123°55'0 0.0
2018-Feb-12 02:29N 46°10' W 123°55'0 0.0
2018-Feb-12 01:59N 46°10' W 123°55'0 0.0
2018-Feb-12 01:29N 46°10' W 123°55'0 0.0
2018-Feb-12 00:59N 46°10' W 123°55'0 0.0
2018-Feb-12 00:29N 46°10' W 123°55'0 0.0
2018-Feb-11 23:59N 46°10' W 123°55'0 0.0
2018-Feb-11 23:29N 46°10' W 123°55'0 0.0
2018-Feb-11 22:59N 46°10' W 123°55'0 0.0
2018-Feb-11 22:29N 46°10' W 123°55'0 0.0
2018-Feb-11 21:59N 46°10' W 123°55'0 0.0
2018-Feb-11 21:29N 46°10' W 123°55'0 0.0
2018-Feb-11 20:59N 46°10' W 123°55'0 0.0
2018-Feb-11 19:59N 46°10' W 123°55'0 0.0
2018-Feb-11 19:14N 46°10' W 123°55'0 0.0
2018-Feb-11 18:59N 46°10' W 123°55'0 0.0
2018-Feb-11 18:29N 46°10' W 123°55'0 0.0
2018-Feb-11 17:59N 46°10' W 123°55'0 0.0
2018-Feb-11 17:29N 46°10' W 123°55'0 0.2
2018-Feb-11 17:00N 46°10' W 123°55'0 0.0
2018-Feb-11 16:30N 46°10' W 123°55'0 0.0
2018-Feb-11 16:00N 46°10' W 123°55'0 0.0
2018-Feb-11 15:30N 46°10' W 123°55'0 0.0
2018-Feb-11 15:00N 46°10' W 123°55'0 0.0
2018-Feb-11 14:27N 46°10' W 123°55'0 0.0
2018-Feb-11 13:57N 46°10' W 123°55'0 0.2
2018-Feb-11 13:28N 46°10' W 123°55'0 0.0
2018-Feb-11 12:58N 46°10' W 123°55'0 0.0
2018-Feb-11 12:28N 46°10' W 123°55'0 0.0
2018-Feb-11 11:52N 46°10' W 123°55'0 0.0
2018-Feb-11 11:28N 46°10' W 123°55'0 0.0
2018-Feb-11 10:58N 46°10' W 123°55'0 0.0
2018-Feb-11 10:28N 46°10' W 123°55'0 0.0
2018-Feb-11 09:58N 46°10' W 123°55'0 0.0
2018-Feb-11 09:28N 46°10' W 123°55'0 0.0
2018-Feb-11 08:58N 46°10' W 123°55'0 0.0
2018-Feb-11 08:28N 46°10' W 123°55'0 0.0
2018-Feb-11 07:58N 46°10' W 123°55'0 0.0
2018-Feb-11 07:28N 46°10' W 123°55'0 0.0
2018-Feb-11 06:58N 46°10' W 123°55'0 0.0
2018-Feb-11 06:28N 46°10' W 123°55'0 0.0
2018-Feb-11 05:49N 46°10' W 123°55'0 0.0
2018-Feb-11 05:28N 46°10' W 123°55'0 0.0
2018-Feb-11 04:58N 46°10' W 123°55'0 0.0
2018-Feb-11 04:28N 46°10' W 123°55'0 0.0
2018-Feb-11 03:58N 46°10' W 123°55'0 0.0
2018-Feb-11 03:28N 46°10' W 123°55'0 0.0
2018-Feb-11 02:58N 46°10' W 123°55'0 0.0
2018-Feb-11 02:16N 46°10' W 123°55'0 0.0
2018-Feb-11 01:58N 46°10' W 123°55'0 0.2
2018-Feb-11 01:28N 46°10' W 123°55'0 0.9
2018-Feb-11 01:00N 46°11' W 123°55'3 5.5
2018-Feb-11 00:25N 46°13' W 123°58'2 5.4
2018-Feb-11 00:00N 46°15' W 124°00'2 5.0
2018-Feb-10 23:30N 46°15' W 124°04'2 4.9
2018-Feb-10 23:00N 46°13' W 124°06'4 7.7
2018-Feb-10 22:30N 46°09' W 124°05'4 7.9
2018-Feb-10 22:00N 46°05' W 124°04'4 8.2
2018-Feb-10 21:30N 46°01' W 124°03'3 7.0
2018-Feb-10 21:01N 45°58' W 124°02'4 7.1
2018-Feb-10 20:30N 45°54' W 124°02'4 8.1
2018-Feb-10 19:59N 45°50' W 124°01'  
Track history (hours):
 
Tides and Currents Weather Stations Pressure Air Temp Water Temp Dewpoint Dewpoint Depression Visibility Wind Speed Wind Dir Waves Ship Positions

Swell Rider

Owner: PACIFIC HARVESTING CORPORATION, GARIBALDI, OR. More information available from US FCC via Universal Licensing System and Coast Guard Vessel Documentation Center.

Last reported at 2018-Feb-20 17:25 UTC. Time now 2018-Feb-20 23:10 UTC.
Position N 45°34' W 123°57'.

Length 28 m.

Type: Fishing. MMSI: 367079690.

Date/timePositionNaut miles runAvg speedWind from/ knotsBaromVisibWave heightAir tempDewpointWater temp
2018-Feb-20 17:25N 45°34' W 123°57'3 6.7
2018-Feb-20 16:59N 45°32' W 123°60'12 1.0
2018-Feb-20 05:36N 45°26' W 124°14'1 9.2
2018-Feb-20 05:30N 45°26' W 124°14'5 9.1
2018-Feb-20 05:00N 45°31' W 124°13'5 9.2
2018-Feb-20 04:30N 45°35' W 124°13'5 9.1
2018-Feb-20 04:00N 45°40' W 124°14'5 9.1
2018-Feb-20 03:30N 45°45' W 124°15'5 9.2
2018-Feb-20 03:00N 45°49' W 124°16'5 9.2
2018-Feb-20 02:30N 45°54' W 124°17'5 9.2
2018-Feb-20 01:58N 45°58' W 124°18'4 9.0
2018-Feb-20 01:30N 46°03' W 124°19'4 8.0
2018-Feb-20 01:00N 46°07' W 124°18'4 8.6
2018-Feb-20 00:30N 46°10' W 124°14'4 8.9
2018-Feb-20 00:00N 46°12' W 124°09'4 8.7
2018-Feb-19 23:30N 46°15' W 124°04'4 7.4
2018-Feb-19 23:00N 46°14' W 123°59'4 8.1
2018-Feb-19 22:30N 46°11' W 123°54'1 2.3
2018-Feb-19 21:59N 46°10' W 123°55'0 0.2
2018-Feb-19 21:25N 46°10' W 123°55'0 0.0
2018-Feb-19 20:58N 46°10' W 123°55'0 0.0
2018-Feb-19 20:28N 46°10' W 123°55'0 0.0
2018-Feb-19 19:55N 46°10' W 123°55'0 0.0
2018-Feb-19 18:55N 46°10' W 123°55'0 0.0
2018-Feb-19 18:07N 46°10' W 123°55'0 0.0
2018-Feb-19 17:58N 46°10' W 123°55'0 0.0
2018-Feb-19 17:28N 46°10' W 123°55'0 0.0
2018-Feb-19 16:58N 46°10' W 123°55'0 0.0
2018-Feb-19 16:28N 46°10' W 123°55'0 0.0
2018-Feb-19 15:58N 46°10' W 123°55'0 0.0
2018-Feb-19 15:28N 46°10' W 123°55'0 0.0
2018-Feb-19 14:58N 46°10' W 123°55'0 0.0
2018-Feb-19 14:28N 46°10' W 123°55'0 0.0
2018-Feb-19 13:58N 46°10' W 123°55'0 0.0
2018-Feb-19 13:28N 46°10' W 123°55'0 0.0
2018-Feb-19 12:58N 46°10' W 123°55'0 0.0
2018-Feb-19 12:28N 46°10' W 123°55'0 0.0
2018-Feb-19 11:58N 46°10' W 123°55'0 0.0
2018-Feb-19 10:46N 46°10' W 123°55'0 0.0
2018-Feb-19 10:28N 46°10' W 123°55'0 0.0
2018-Feb-19 09:58N 46°10' W 123°55'0 0.0
2018-Feb-19 09:08N 46°10' W 123°55'0 0.0
2018-Feb-19 08:58N 46°10' W 123°55'0 0.0
2018-Feb-19 08:28N 46°10' W 123°55'0 0.0
2018-Feb-19 07:40N 46°10' W 123°55'0 0.0
2018-Feb-19 07:29N 46°10' W 123°55'0 0.0
2018-Feb-19 06:55N 46°10' W 123°55'0 0.0
2018-Feb-19 06:28N 46°10' W 123°55'0 0.0
2018-Feb-19 05:58N 46°10' W 123°55'0 0.0
2018-Feb-19 05:16N 46°10' W 123°55'0 0.0
2018-Feb-19 04:59N 46°10' W 123°55'0 0.0
2018-Feb-19 04:28N 46°10' W 123°55'0 0.0
2018-Feb-19 03:58N 46°10' W 123°55'0 0.0
2018-Feb-19 03:28N 46°10' W 123°55'0 0.0
2018-Feb-19 02:59N 46°10' W 123°55'0 0.0
2018-Feb-19 02:29N 46°10' W 123°55'0 0.0
2018-Feb-19 01:59N 46°10' W 123°55'0 0.0
2018-Feb-19 01:29N 46°10' W 123°55'0 0.0
2018-Feb-19 00:58N 46°10' W 123°55'0 0.0
2018-Feb-19 00:29N 46°10' W 123°55'0 0.0
2018-Feb-18 23:59N 46°10' W 123°55'0 0.0
2018-Feb-18 23:29N 46°10' W 123°55'0 0.0
2018-Feb-18 22:59N 46°10' W 123°55'0 0.0
2018-Feb-18 22:29N 46°10' W 123°55'0 0.0
2018-Feb-18 21:59N 46°10' W 123°55'0 0.0
2018-Feb-18 21:29N 46°10' W 123°55'0 0.0
2018-Feb-18 20:59N 46°10' W 123°55'0 0.0
2018-Feb-18 20:29N 46°10' W 123°55'0 0.0
2018-Feb-18 19:59N 46°10' W 123°55'0 0.0
2018-Feb-18 19:29N 46°10' W 123°55'0 0.0
2018-Feb-18 18:59N 46°10' W 123°55'0 0.0
2018-Feb-18 18:29N 46°10' W 123°55'0 0.0
2018-Feb-18 17:59N 46°10' W 123°55'0 0.0
2018-Feb-18 17:29N 46°10' W 123°55'0 0.0
2018-Feb-18 16:59N 46°10' W 123°55'0 0.0
2018-Feb-18 16:29N 46°10' W 123°55'0 0.0
2018-Feb-18 15:59N 46°10' W 123°55'0 0.0
2018-Feb-18 15:29N 46°10' W 123°55'0 0.0
2018-Feb-18 14:59N 46°10' W 123°55'0 0.0
2018-Feb-18 14:29N 46°10' W 123°55'0 0.0
2018-Feb-18 13:59N 46°10' W 123°55'0 0.0
2018-Feb-18 13:29N 46°10' W 123°55'0 0.0
2018-Feb-18 12:59N 46°10' W 123°55'0 0.0
2018-Feb-18 12:29N 46°10' W 123°55'0 0.0
2018-Feb-18 11:59N 46°10' W 123°55'0 0.0
2018-Feb-18 11:29N 46°10' W 123°55'0 0.0
2018-Feb-18 10:59N 46°10' W 123°55'0 0.0
2018-Feb-18 10:29N 46°10' W 123°55'0 0.0
2018-Feb-18 09:47N 46°10' W 123°55'0 0.0
2018-Feb-18 09:29N 46°10' W 123°55'0 0.0
2018-Feb-18 08:59N 46°10' W 123°55'0 0.0
2018-Feb-18 08:29N 46°10' W 123°55'0 0.0
2018-Feb-18 07:59N 46°10' W 123°55'0 0.0
2018-Feb-18 07:29N 46°10' W 123°55'0 0.0
2018-Feb-18 06:59N 46°10' W 123°55'0 0.0
2018-Feb-18 06:29N 46°10' W 123°55'0 0.0
2018-Feb-18 05:59N 46°10' W 123°55'0 0.0
2018-Feb-18 05:29N 46°10' W 123°55'0 0.0
2018-Feb-18 04:59N 46°10' W 123°55'0 0.0
2018-Feb-18 04:29N 46°10' W 123°55'0 0.0
2018-Feb-18 03:59N 46°10' W 123°55'0 0.0
2018-Feb-18 03:29N 46°10' W 123°55'0 0.0
2018-Feb-18 02:59N 46°10' W 123°55'0 0.0
2018-Feb-18 02:29N 46°10' W 123°55'0 0.0
2018-Feb-18 01:59N 46°10' W 123°55'0 0.0
2018-Feb-18 01:29N 46°10' W 123°55'0 0.0
2018-Feb-18 00:59N 46°10' W 123°55'0 0.0
2018-Feb-18 00:11N 46°10' W 123°55'0 0.0
2018-Feb-17 23:47N 46°10' W 123°55'0 0.0
2018-Feb-17 23:30N 46°10' W 123°55'0 0.0
2018-Feb-17 22:59N 46°10' W 123°55'0 0.0
2018-Feb-17 22:29N 46°10' W 123°55'0 0.0
2018-Feb-17 21:59N 46°10' W 123°55'0 0.0
2018-Feb-17 21:29N 46°10' W 123°55'0 0.0
2018-Feb-17 20:59N 46°10' W 123°55'0 0.0
2018-Feb-17 20:29N 46°10' W 123°55'0 0.0
2018-Feb-17 19:59N 46°10' W 123°55'0 0.0
2018-Feb-17 19:29N 46°10' W 123°55'0 0.0
2018-Feb-17 18:35N 46°10' W 123°55'0 0.0
2018-Feb-17 18:29N 46°10' W 123°55'0 0.0
2018-Feb-17 17:35N 46°10' W 123°55'0 0.0
2018-Feb-17 17:29N 46°10' W 123°55'0 0.0
2018-Feb-17 16:59N 46°10' W 123°55'0 0.0
2018-Feb-17 16:29N 46°10' W 123°55'0 0.1
2018-Feb-17 15:58N 46°10' W 123°55'0 0.1
2018-Feb-17 15:30N 46°10' W 123°55'0 0.0
2018-Feb-17 15:00N 46°10' W 123°55'0 0.0
2018-Feb-17 14:30N 46°10' W 123°55'0 0.0
2018-Feb-17 14:00N 46°10' W 123°55'0 0.2
2018-Feb-17 13:30N 46°10' W 123°55'0 0.0
2018-Feb-17 10:15N 46°10' W 123°55'0 0.0
2018-Feb-17 10:00N 46°10' W 123°55'0 0.0
2018-Feb-17 09:30N 46°10' W 123°55'0 0.0
2018-Feb-17 09:00N 46°10' W 123°55'0 0.0
2018-Feb-17 08:30N 46°10' W 123°55'0 0.0
2018-Feb-17 08:00N 46°10' W 123°55'0 0.0
2018-Feb-17 07:30N 46°10' W 123°55'0 0.0
2018-Feb-17 07:00N 46°10' W 123°55'0 0.0
2018-Feb-17 06:30N 46°10' W 123°55'0 0.0
2018-Feb-17 06:00N 46°10' W 123°55'0 0.0
2018-Feb-17 05:30N 46°10' W 123°55'0 0.0
2018-Feb-17 05:00N 46°10' W 123°55'0 0.3
2018-Feb-17 04:30N 46°10' W 123°55'5 5.9
2018-Feb-17 03:34N 46°14' W 123°60'2 5.1
2018-Feb-17 03:14N 46°15' W 124°02'1 4.4
2018-Feb-17 03:00N 46°15' W 124°04'2 4.2
2018-Feb-17 02:30N 46°14' W 124°06'4 8.5
2018-Feb-17 02:00N 46°10' W 124°06'3 6.9
2018-Feb-17 01:30N 46°06' W 124°05'4 7.3
2018-Feb-17 01:00N 46°03' W 124°05'3 6.9
2018-Feb-17 00:30N 45°59' W 124°04'3 6.1
2018-Feb-17 00:00N 45°56' W 124°03'4 7.6
2018-Feb-16 23:29N 45°52' W 124°02'4 7.8
2018-Feb-16 23:00N 45°49' W 124°02'4 7.4
2018-Feb-16 22:28N 45°45' W 124°00'2 4.1
2018-Feb-16 22:00N 45°43' W 123°59'0 0.9
2018-Feb-16 21:30N 45°43' W 123°59'0 0.6
2018-Feb-16 20:43N 45°42' W 123°59'1 4.2
2018-Feb-16 20:25N 45°41' W 123°59'3 6.9
2018-Feb-16 19:58N 45°38' W 123°60'1 2.3
2018-Feb-16 19:22N 45°37' W 123°60'  
2018-Feb-12 21:54N 45°53' W 124°16'3 8.3
2018-Feb-12 21:31N 45°56' W 124°16'4 8.3
2018-Feb-12 21:01N 45°60' W 124°14'6 8.1
2018-Feb-12 20:19N 46°05' W 124°11'3 8.1
2018-Feb-12 20:00N 46°07' W 124°10'4 8.1
2018-Feb-12 19:30N 46°11' W 124°07'4 9.0
2018-Feb-12 19:00N 46°15' W 124°05'4 8.3
2018-Feb-12 18:30N 46°14' W 123°59'4 8.4
2018-Feb-12 17:59N 46°12' W 123°54'2 4.7
2018-Feb-12 17:29N 46°12' W 123°50'0 0.0
2018-Feb-12 16:59N 46°12' W 123°50'0 0.0
2018-Feb-12 16:20N 46°12' W 123°50'0 0.0
2018-Feb-12 15:59N 46°12' W 123°50'2 4.9
2018-Feb-12 15:30N 46°11' W 123°54'1 2.7
2018-Feb-12 15:00N 46°10' W 123°55'0 0.0
2018-Feb-12 14:30N 46°10' W 123°55'0 0.2
2018-Feb-12 13:56N 46°10' W 123°55'0 0.1
2018-Feb-12 13:29N 46°10' W 123°55'0 0.0
2018-Feb-12 12:56N 46°10' W 123°55'0 0.0
2018-Feb-12 12:29N 46°10' W 123°55'0 0.0
2018-Feb-12 11:59N 46°10' W 123°55'0 0.0
2018-Feb-12 11:29N 46°10' W 123°55'0 0.0
2018-Feb-12 10:59N 46°10' W 123°55'0 0.0
2018-Feb-12 10:29N 46°10' W 123°55'0 0.0
2018-Feb-12 09:59N 46°10' W 123°55'0 0.0
2018-Feb-12 09:29N 46°10' W 123°55'0 0.0
2018-Feb-12 08:59N 46°10' W 123°55'0 0.0
2018-Feb-12 08:29N 46°10' W 123°55'0 0.0
2018-Feb-12 07:59N 46°10' W 123°55'0 0.0
2018-Feb-12 07:29N 46°10' W 123°55'0 0.0
2018-Feb-12 06:59N 46°10' W 123°55'0 0.0
2018-Feb-12 06:29N 46°10' W 123°55'0 0.0
2018-Feb-12 05:47N 46°10' W 123°55'0 0.0
2018-Feb-12 05:29N 46°10' W 123°55'0 0.0
2018-Feb-12 04:59N 46°10' W 123°55'0 0.0
2018-Feb-12 04:29N 46°10' W 123°55'0 0.0
2018-Feb-12 03:59N 46°10' W 123°55'0 0.0
2018-Feb-12 03:29N 46°10' W 123°55'0 0.0
2018-Feb-12 02:59N 46°10' W 123°55'0 0.0
2018-Feb-12 02:29N 46°10' W 123°55'0 0.0
2018-Feb-12 01:59N 46°10' W 123°55'0 0.0
2018-Feb-12 01:29N 46°10' W 123°55'0 0.0
2018-Feb-12 00:59N 46°10' W 123°55'0 0.0
2018-Feb-12 00:29N 46°10' W 123°55'0 0.0
2018-Feb-11 23:59N 46°10' W 123°55'0 0.0
2018-Feb-11 23:29N 46°10' W 123°55'0 0.0
2018-Feb-11 22:59N 46°10' W 123°55'0 0.0
2018-Feb-11 22:29N 46°10' W 123°55'0 0.0
2018-Feb-11 21:59N 46°10' W 123°55'0 0.0
2018-Feb-11 21:29N 46°10' W 123°55'0 0.0
2018-Feb-11 20:59N 46°10' W 123°55'0 0.0
2018-Feb-11 19:59N 46°10' W 123°55'0 0.0
2018-Feb-11 19:14N 46°10' W 123°55'0 0.0
2018-Feb-11 18:59N 46°10' W 123°55'0 0.0
2018-Feb-11 18:29N 46°10' W 123°55'0 0.0
2018-Feb-11 17:59N 46°10' W 123°55'0 0.0
2018-Feb-11 17:29N 46°10' W 123°55'0 0.2
2018-Feb-11 17:00N 46°10' W 123°55'0 0.0
2018-Feb-11 16:30N 46°10' W 123°55'0 0.0
2018-Feb-11 16:00N 46°10' W 123°55'0 0.0
2018-Feb-11 15:30N 46°10' W 123°55'0 0.0
2018-Feb-11 15:00N 46°10' W 123°55'0 0.0
2018-Feb-11 14:27N 46°10' W 123°55'0 0.0
2018-Feb-11 13:57N 46°10' W 123°55'0 0.2
2018-Feb-11 13:28N 46°10' W 123°55'0 0.0
2018-Feb-11 12:58N 46°10' W 123°55'0 0.0
2018-Feb-11 12:28N 46°10' W 123°55'0 0.0
2018-Feb-11 11:52N 46°10' W 123°55'0 0.0
2018-Feb-11 11:28N 46°10' W 123°55'0 0.0
2018-Feb-11 10:58N 46°10' W 123°55'0 0.0
2018-Feb-11 10:28N 46°10' W 123°55'0 0.0
2018-Feb-11 09:58N 46°10' W 123°55'0 0.0
2018-Feb-11 09:28N 46°10' W 123°55'0 0.0
2018-Feb-11 08:58N 46°10' W 123°55'0 0.0
2018-Feb-11 08:28N 46°10' W 123°55'0 0.0
2018-Feb-11 07:58N 46°10' W 123°55'0 0.0
2018-Feb-11 07:28N 46°10' W 123°55'0 0.0
2018-Feb-11 06:58N 46°10' W 123°55'0 0.0
2018-Feb-11 06:28N 46°10' W 123°55'0 0.0
2018-Feb-11 05:49N 46°10' W 123°55'0 0.0
2018-Feb-11 05:28N 46°10' W 123°55'0 0.0
2018-Feb-11 04:58N 46°10' W 123°55'0 0.0
2018-Feb-11 04:28N 46°10' W 123°55'0 0.0
2018-Feb-11 03:58N 46°10' W 123°55'0 0.0
2018-Feb-11 03:28N 46°10' W 123°55'0 0.0
2018-Feb-11 02:58N 46°10' W 123°55'0 0.0
2018-Feb-11 02:16N 46°10' W 123°55'0 0.0
2018-Feb-11 01:58N 46°10' W 123°55'0 0.2
2018-Feb-11 01:28N 46°10' W 123°55'0 0.9
2018-Feb-11 01:00N 46°11' W 123°55'3 5.5
2018-Feb-11 00:25N 46°13' W 123°58'2 5.4
2018-Feb-11 00:00N 46°15' W 124°00'2 5.0
2018-Feb-10 23:30N 46°15' W 124°04'2 4.9
2018-Feb-10 23:00N 46°13' W 124°06'4 7.7
2018-Feb-10 22:30N 46°09' W 124°05'4 7.9
2018-Feb-10 22:00N 46°05' W 124°04'4 8.2
2018-Feb-10 21:30N 46°01' W 124°03'3 7.0
2018-Feb-10 21:01N 45°58' W 124°02'4 7.1
2018-Feb-10 20:30N 45°54' W 124°02'4 8.1
2018-Feb-10 19:59N 45°50' W 124°01'  

Dump ship's entire track history